Time;durP1;ratioP1;P1;durP2;ratioP2;P2;SDS_P1;SDS_P2;PMS_P1;PMS_P2;Temp;Humidity;BMP_temperature;BMP_pressure;BME280_temperature;BME280_humidity;BME280_pressure;Samples;Min_cycle;Max_cycle;Signal;HPM_P1;HPM_P2
2022/02/18 00:00:54;;;;;;;8.20;2.70;;;7.80;99.90;;;;;;4981029;28;20853;-69
2022/02/18 00:03:24;;;;;;;10.57;2.90;;;7.80;99.90;;;;;;4990641;28;20502;-71
2022/02/18 00:05:50;;;;;;;6.70;2.73;;;7.80;99.90;;;;;;4995215;28;20474;-68
2022/02/18 00:08:16;;;;;;;6.87;2.00;;;7.80;99.90;;;;;;4995531;28;20495;-72
2022/02/18 00:10:42;;;;;;;10.20;3.40;;;7.80;99.90;;;;;;4992515;28;20449;-69
2022/02/18 00:13:09;;;;;;;10.00;2.23;;;7.80;99.90;;;;;;5021060;28;20229;-71
2022/02/18 00:15:34;;;;;;;10.80;2.50;;;7.80;99.90;;;;;;5040118;27;20455;-72
2022/02/18 00:18:02;;;;;;;4.07;2.07;;;7.80;99.90;;;;;;5006350;28;20456;-73
2022/02/18 00:20:32;;;;;;;8.47;3.00;;;7.90;99.90;;;;;;5012043;28;20592;-68
2022/02/18 00:23:00;;;;;;;11.07;2.80;;;7.90;99.90;;;;;;5006104;28;20463;-69
2022/02/18 00:25:26;;;;;;;9.00;2.73;;;7.80;99.90;;;;;;5046276;27;20834;-68
2022/02/18 00:27:57;;;;;;;6.40;1.90;;;7.80;99.90;;;;;;5061681;27;20528;-73
2022/02/18 00:30:24;;;;;;;9.10;1.80;;;7.80;99.90;;;;;;5026386;28;20966;-70
2022/02/18 00:32:49;;;;;;;9.03;2.33;;;7.80;99.90;;;;;;5001918;28;20551;-70
2022/02/18 00:35:19;;;;;;;9.10;2.90;;;7.80;99.90;;;;;;5000520;28;20617;-71
2022/02/18 00:37:50;;;;;;;9.00;2.60;;;7.80;99.90;;;;;;4998788;28;20829;-71
2022/02/18 00:40:16;;;;;;;16.43;2.40;;;7.80;99.90;;;;;;5015970;28;20475;-70
2022/02/18 00:42:42;;;;;;;20.53;2.83;;;7.80;99.90;;;;;;5021956;28;20883;-70
2022/02/18 00:45:09;;;;;;;8.30;2.00;;;7.80;99.90;;;;;;5002907;28;20485;-71
2022/02/18 00:47:35;;;;;;;3.43;1.43;;;7.80;99.90;;;;;;4999504;28;20467;-68
2022/02/18 00:50:00;;;;;;;13.83;2.60;;;7.80;99.90;;;;;;4986582;28;20478;-69
2022/02/18 00:52:26;;;;;;;9.00;2.07;;;7.80;99.90;;;;;;4994123;28;20218;-69
2022/02/18 00:54:52;;;;;;;9.23;1.73;;;7.80;99.90;;;;;;4989139;28;20308;-69
2022/02/18 00:57:18;;;;;;;10.93;2.20;;;7.80;99.90;;;;;;5005558;28;20885;-69
2022/02/18 00:59:44;;;;;;;8.03;2.10;;;7.80;99.90;;;;;;5023861;27;20227;-73
2022/02/18 01:02:12;;;;;;;8.30;1.77;;;7.80;99.90;;;;;;4998991;28;20258;-69
2022/02/18 01:04:38;;;;;;;9.40;1.97;;;7.90;99.90;;;;;;4985568;28;20468;-67
2022/02/18 01:07:05;;;;;;;7.87;1.60;;;7.90;99.90;;;;;;5014878;27;20291;-69
2022/02/18 01:09:31;;;;;;;6.77;1.67;;;7.90;99.90;;;;;;5030786;27;20559;-70
2022/02/18 01:11:56;;;;;;;4.97;1.47;;;7.90;99.90;;;;;;5022851;28;20543;-69
2022/02/18 01:14:24;;;;;;;2.13;1.60;;;7.90;99.90;;;;;;5016118;28;20464;-70
2022/02/18 01:16:50;;;;;;;3.87;1.30;;;7.90;99.90;;;;;;5015581;28;20213;-69
2022/02/18 01:19:16;;;;;;;3.07;1.33;;;8.00;99.90;;;;;;5020842;28;21006;-70
2022/02/18 01:21:42;;;;;;;5.10;1.53;;;8.00;99.90;;;;;;5044960;27;20208;-70
2022/02/18 01:24:08;;;;;;;8.53;1.80;;;8.00;99.90;;;;;;5006039;28;20487;-68
2022/02/18 01:26:34;;;;;;;9.47;1.70;;;8.00;99.90;;;;;;5056239;27;20217;-69
2022/02/18 01:29:01;;;;;;;3.30;2.00;;;8.00;99.90;;;;;;5016623;28;20221;-69
2022/02/18 01:31:27;;;;;;;5.40;1.33;;;8.00;99.90;;;;;;4998429;28;20461;-70
2022/02/18 01:33:55;;;;;;;3.00;1.43;;;8.00;99.90;;;;;;5001469;28;20460;-69
2022/02/18 01:36:22;;;;;;;4.30;1.90;;;8.00;99.90;;;;;;4980112;28;20476;-69
2022/02/18 01:38:52;;;;;;;5.60;1.23;;;8.10;99.90;;;;;;4991726;28;20823;-69
2022/02/18 01:41:19;;;;;;;6.13;1.97;;;8.00;99.90;;;;;;5017860;28;20484;-71
2022/02/18 01:44:05;;;;;;;7.40;1.70;;;8.10;99.90;;;;;;5019288;28;20212;-69
2022/02/18 01:46:32;;;;;;;5.33;1.37;;;8.10;99.90;;;;;;4995194;28;20454;-74
2022/02/18 01:48:59;;;;;;;2.60;1.40;;;8.00;99.90;;;;;;5004949;28;20625;-71
2022/02/18 01:51:27;;;;;;;9.53;1.40;;;8.10;99.90;;;;;;4982568;28;20452;-68
2022/02/18 01:53:54;;;;;;;4.83;2.17;;;8.10;99.90;;;;;;5014671;28;20531;-68
2022/02/18 01:56:21;;;;;;;1.20;1.10;;;8.10;99.90;;;;;;4993165;28;20569;-70
2022/02/18 01:58:48;;;;;;;5.20;1.80;;;8.10;99.90;;;;;;4986728;28;20475;-72
2022/02/18 02:01:14;;;;;;;7.27;1.70;;;8.10;99.90;;;;;;5010068;28;20470;-69
2022/02/18 02:03:40;;;;;;;13.13;1.60;;;8.10;99.90;;;;;;4992268;28;20448;-70
2022/02/18 02:06:07;;;;;;;2.80;1.30;;;8.10;99.90;;;;;;5018385;28;20478;-70
2022/02/18 02:08:36;;;;;;;3.23;1.37;;;8.00;99.90;;;;;;5016995;28;20474;-70
2022/02/18 02:11:03;;;;;;;6.67;1.60;;;8.10;99.90;;;;;;4994918;28;20447;-68
2022/02/18 02:13:34;;;;;;;9.17;1.80;;;8.00;99.90;;;;;;5004380;28;20451;-70
2022/02/18 02:16:05;;;;;;;7.13;2.33;;;8.00;99.90;;;;;;5038279;27;20461;-70
2022/02/18 02:18:31;;;;;;;18.63;2.27;;;8.00;99.90;;;;;;5016343;28;20452;-70
2022/02/18 02:20:57;;;;;;;4.20;2.03;;;8.00;99.90;;;;;;5043343;27;20452;-70
2022/02/18 02:23:29;;;;;;;3.80;1.53;;;8.00;99.90;;;;;;5019690;28;20213;-69
2022/02/18 02:25:54;;;;;;;5.20;1.60;;;8.00;99.90;;;;;;5054874;27;21031;-69
2022/02/18 02:28:25;;;;;;;9.97;2.10;;;8.00;99.90;;;;;;5080155;27;20248;-70
2022/02/18 02:30:52;;;;;;;3.73;1.77;;;8.00;99.90;;;;;;5015629;28;20455;-69
2022/02/18 02:33:18;;;;;;;2.70;1.73;;;8.00;99.90;;;;;;5006037;28;21248;-69
2022/02/18 02:35:47;;;;;;;3.53;1.80;;;8.10;99.90;;;;;;4988670;28;20217;-69
2022/02/18 02:38:13;;;;;;;5.70;1.77;;;8.10;99.90;;;;;;4997296;28;20488;-69
2022/02/18 02:40:39;;;;;;;5.00;1.70;;;8.10;99.90;;;;;;5015792;28;20911;-70
2022/02/18 02:43:05;;;;;;;3.13;1.20;;;8.10;99.90;;;;;;5021612;28;20218;-69
2022/02/18 02:45:31;;;;;;;9.57;1.70;;;8.10;99.90;;;;;;5011330;28;20534;-68
2022/02/18 02:47:57;;;;;;;2.73;1.60;;;8.10;99.90;;;;;;5034120;27;20235;-69
2022/02/18 02:50:43;;;;;;;7.13;1.87;;;8.10;99.90;;;;;;5017676;28;20299;-69
2022/02/18 02:53:09;;;;;;;6.93;1.90;;;8.10;99.90;;;;;;5001606;28;20542;-68
2022/02/18 02:55:36;;;;;;;7.10;2.10;;;8.10;99.90;;;;;;5013865;28;20447;-70
2022/02/18 02:58:02;;;;;;;9.77;2.10;;;8.10;99.90;;;;;;5034347;27;20935;-71
2022/02/18 03:00:28;;;;;;;3.43;1.50;;;8.10;99.90;;;;;;4999206;28;20727;-70
2022/02/18 03:02:53;;;;;;;10.97;2.00;;;8.10;99.90;;;;;;5009803;28;20460;-70
2022/02/18 03:05:30;;;;;;;10.57;1.70;;;8.10;99.90;;;;;;5004007;28;20217;-69
2022/02/18 03:07:59;;;;;;;8.43;1.90;;;8.20;99.90;;;;;;5000574;28;20465;-69
2022/02/18 03:10:25;;;;;;;9.20;2.23;;;8.20;99.90;;;;;;5031344;27;20461;-72
2022/02/18 03:12:53;;;;;;;4.77;2.30;;;8.20;99.90;;;;;;5001307;28;20216;-68
2022/02/18 03:15:18;;;;;;;9.70;1.87;;;8.20;99.90;;;;;;5016595;28;20546;-70
2022/02/18 03:17:45;;;;;;;3.20;1.73;;;8.20;99.90;;;;;;5021014;28;20635;-69
2022/02/18 03:20:18;;;;;;;3.63;1.77;;;8.20;99.90;;;;;;5018842;28;20509;-74
2022/02/18 03:22:44;;;;;;;6.97;1.90;;;8.20;99.90;;;;;;5003792;28;20551;-71
2022/02/18 03:25:10;;;;;;;11.30;2.90;;;8.20;99.90;;;;;;5030513;28;20885;-70
2022/02/18 03:27:38;;;;;;;5.30;2.43;;;8.20;99.90;;;;;;5054841;28;20546;-69
2022/02/18 03:30:07;;;;;;;13.87;2.23;;;8.20;99.90;;;;;;4985513;28;20468;-69
2022/02/18 03:32:34;;;;;;;10.10;2.50;;;8.20;99.90;;;;;;5010302;28;20460;-69
2022/02/18 03:35:00;;;;;;;6.20;2.40;;;8.20;99.90;;;;;;5003477;28;20463;-69
2022/02/18 03:37:36;;;;;;;5.80;1.97;;;8.20;99.90;;;;;;4998131;28;20300;-71
2022/02/18 03:40:12;;;;;;;13.13;2.73;;;8.20;99.90;;;;;;4999991;28;20468;-70
2022/02/18 03:42:39;;;;;;;13.23;2.03;;;8.20;99.90;;;;;;4983756;28;20453;-70
2022/02/18 03:45:06;;;;;;;3.50;1.93;;;8.20;99.90;;;;;;4988227;28;20464;-70
2022/02/18 03:47:33;;;;;;;6.80;2.27;;;8.20;99.90;;;;;;5020687;28;20455;-69
2022/02/18 03:50:00;;;;;;;10.13;2.27;;;8.20;99.90;;;;;;5027892;28;20499;-70
2022/02/18 03:52:27;;;;;;;10.20;2.70;;;8.20;99.90;;;;;;5027460;28;20456;-69
2022/02/18 03:54:53;;;;;;;8.23;2.10;;;8.20;99.90;;;;;;5006320;28;20480;-71
2022/02/18 03:57:19;;;;;;;10.00;2.40;;;8.20;99.90;;;;;;5038161;28;20248;-70
2022/02/18 03:59:46;;;;;;;9.47;3.10;;;8.20;99.90;;;;;;5007880;28;20464;-72
2022/02/18 04:02:12;;;;;;;7.57;2.43;;;8.10;99.90;;;;;;4995753;28;20532;-68
2022/02/18 04:04:38;;;;;;;14.07;2.53;;;8.10;99.90;;;;;;5028541;28;20249;-70
2022/02/18 04:07:20;;;;;;;11.00;2.60;;;8.10;99.90;;;;;;4986296;28;20248;-71
2022/02/18 04:09:50;;;;;;;14.40;2.80;;;8.10;99.90;;;;;;5002672;28;20468;-68
2022/02/18 04:12:20;;;;;;;10.97;1.80;;;8.10;99.90;;;;;;5001839;28;20509;-70
2022/02/18 04:14:49;;;;;;;9.50;2.73;;;8.20;99.90;;;;;;5029215;28;20448;-70
2022/02/18 04:17:18;;;;;;;5.03;2.20;;;8.10;99.90;;;;;;5029411;27;20459;-73
2022/02/18 04:19:48;;;;;;;5.67;1.80;;;8.20;99.90;;;;;;5020583;28;20489;-70
2022/02/18 04:22:20;;;;;;;9.23;2.07;;;8.20;99.90;;;;;;5008926;28;20453;-69
2022/02/18 04:24:47;;;;;;;12.30;2.50;;;8.20;99.90;;;;;;5012965;28;21006;-73
2022/02/18 04:27:15;;;;;;;12.60;2.67;;;8.20;99.90;;;;;;5102646;27;20448;-73
2022/02/18 04:29:41;;;;;;;8.67;2.47;;;8.20;99.90;;;;;;5003355;28;20448;-70
2022/02/18 04:32:07;;;;;;;6.17;1.70;;;8.20;99.90;;;;;;4990231;28;20477;-70
2022/02/18 04:34:32;;;;;;;10.30;2.00;;;8.20;99.90;;;;;;4997906;28;20224;-69
2022/02/18 04:36:58;;;;;;;15.13;2.77;;;8.20;99.90;;;;;;5016750;28;20228;-69
2022/02/18 04:39:24;;;;;;;6.67;2.17;;;8.20;99.90;;;;;;5004846;28;20240;-70
2022/02/18 04:41:51;;;;;;;3.93;1.93;;;8.20;99.90;;;;;;5012977;28;20469;-70
2022/02/18 04:44:17;;;;;;;7.30;1.80;;;8.20;99.90;;;;;;5007077;28;20459;-69
2022/02/18 04:46:44;;;;;;;7.03;2.30;;;8.20;99.90;;;;;;5009802;28;20229;-70
2022/02/18 04:49:09;;;;;;;13.80;2.13;;;8.20;99.90;;;;;;5000482;28;20465;-72
2022/02/18 04:51:38;;;;;;;6.27;1.83;;;8.20;99.90;;;;;;5003232;28;20456;-69
2022/02/18 04:54:05;;;;;;;6.60;2.10;;;8.20;99.90;;;;;;5001272;28;20217;-70
2022/02/18 04:56:31;;;;;;;2.80;1.73;;;8.20;99.90;;;;;;5004749;28;21007;-69
2022/02/18 04:58:57;;;;;;;6.33;2.37;;;8.20;99.90;;;;;;5008157;28;20476;-69
2022/02/18 05:01:22;;;;;;;12.00;2.27;;;8.20;99.90;;;;;;5008225;28;20958;-68
2022/02/18 05:03:50;;;;;;;4.97;1.83;;;8.20;99.90;;;;;;5016704;28;20216;-70
2022/02/18 05:06:17;;;;;;;6.43;1.90;;;8.20;99.90;;;;;;4997329;28;20274;-71
2022/02/18 05:08:42;;;;;;;5.67;2.00;;;8.20;99.90;;;;;;5003599;28;20484;-68
2022/02/18 05:11:09;;;;;;;8.93;2.10;;;8.20;99.90;;;;;;4995412;28;21007;-71
2022/02/18 05:13:34;;;;;;;13.50;2.30;;;8.20;99.90;;;;;;5020533;28;20632;-68
2022/02/18 05:16:01;;;;;;;6.77;1.80;;;8.20;99.90;;;;;;5034033;27;20504;-71
2022/02/18 05:18:27;;;;;;;5.17;1.80;;;8.20;99.90;;;;;;5017811;28;20232;-69
2022/02/18 05:20:52;;;;;;;11.07;2.13;;;8.20;99.90;;;;;;5014358;28;20463;-72
2022/02/18 05:23:18;;;;;;;9.80;2.50;;;8.20;99.90;;;;;;5033819;28;20224;-70
2022/02/18 05:25:44;;;;;;;7.70;2.20;;;8.20;99.90;;;;;;5040251;28;20220;-70
2022/02/18 05:28:10;;;;;;;5.80;1.77;;;8.20;99.90;;;;;;5043972;27;20635;-69
2022/02/18 05:30:36;;;;;;;16.60;2.43;;;8.20;99.90;;;;;;5011126;28;20718;-69
2022/02/18 05:33:03;;;;;;;17.37;3.50;;;8.20;99.90;;;;;;5001473;28;20594;-70
2022/02/18 05:35:29;;;;;;;8.90;2.00;;;8.20;99.90;;;;;;4998882;28;20448;-70
2022/02/18 05:37:55;;;;;;;3.10;1.97;;;8.20;99.90;;;;;;4991166;28;20464;-70
2022/02/18 05:40:20;;;;;;;10.10;2.53;;;8.20;99.90;;;;;;5016482;28;20475;-69
2022/02/18 05:42:46;;;;;;;8.17;2.80;;;8.20;99.90;;;;;;5002999;28;20575;-70
2022/02/18 05:45:15;;;;;;;5.83;2.00;;;8.20;99.90;;;;;;5018781;28;20463;-70
2022/02/18 05:47:41;;;;;;;9.83;1.87;;;8.20;99.90;;;;;;5030189;27;20464;-72
2022/02/18 05:50:11;;;;;;;9.73;1.80;;;8.20;99.90;;;;;;4999560;28;20491;-74
2022/02/18 05:52:37;;;;;;;3.60;2.10;;;8.20;99.90;;;;;;4992519;28;20498;-69
2022/02/18 05:55:04;;;;;;;10.70;2.60;;;8.20;99.90;;;;;;5006417;28;21022;-68
2022/02/18 05:57:29;;;;;;;6.00;2.43;;;8.30;99.90;;;;;;5006046;28;20496;-71
2022/02/18 05:59:55;;;;;;;8.40;2.43;;;8.20;99.90;;;;;;4987727;28;20508;-69
2022/02/18 06:02:21;;;;;;;6.10;1.93;;;8.20;99.90;;;;;;4988675;28;20221;-73
2022/02/18 06:04:48;;;;;;;5.03;2.17;;;8.30;99.90;;;;;;5009224;28;20674;-72
2022/02/18 06:07:15;;;;;;;6.33;1.90;;;8.30;99.90;;;;;;4981486;28;20604;-69
2022/02/18 06:09:41;;;;;;;6.10;1.97;;;8.30;99.90;;;;;;5017487;28;20221;-69
2022/02/18 06:12:07;;;;;;;4.37;2.00;;;8.30;99.90;;;;;;4981335;28;20468;-68
2022/02/18 06:14:33;;;;;;;7.13;2.10;;;8.30;99.90;;;;;;5014804;28;20214;-70
2022/02/18 06:16:58;;;;;;;7.67;2.27;;;8.20;99.90;;;;;;5071230;28;20530;-70
2022/02/18 06:19:24;;;;;;;5.10;2.27;;;8.30;99.90;;;;;;5018706;28;20309;-68
2022/02/18 06:21:49;;;;;;;10.33;2.50;;;8.20;99.90;;;;;;5064367;28;20212;-69
2022/02/18 06:24:15;;;;;;;4.97;1.70;;;8.30;99.90;;;;;;5001495;28;20224;-68
2022/02/18 06:26:41;;;;;;;6.00;1.93;;;8.20;99.90;;;;;;5014554;28;20688;-69
2022/02/18 06:29:06;;;;;;;5.00;2.00;;;8.30;99.90;;;;;;4997009;28;20264;-72
2022/02/18 06:31:33;;;;;;;10.00;2.20;;;8.20;99.90;;;;;;4990198;28;20304;-69
2022/02/18 06:33:59;;;;;;;7.27;1.77;;;8.20;99.90;;;;;;5014988;28;20715;-70
2022/02/18 06:36:25;;;;;;;6.70;2.20;;;8.20;99.90;;;;;;4997816;28;20465;-69
2022/02/18 06:38:51;;;;;;;13.00;2.30;;;8.20;99.90;;;;;;4998993;28;20222;-70
2022/02/18 06:41:16;;;;;;;4.00;1.30;;;8.20;99.90;;;;;;4996183;28;20241;-68
2022/02/18 06:43:42;;;;;;;7.10;2.00;;;8.20;99.90;;;;;;5006098;28;20205;-69
2022/02/18 06:46:08;;;;;;;6.60;2.67;;;8.20;99.90;;;;;;4988641;28;20639;-69
2022/02/18 06:48:34;;;;;;;6.13;1.50;;;8.30;99.90;;;;;;4989961;28;20268;-69
2022/02/18 06:50:59;;;;;;;7.23;1.73;;;8.30;99.90;;;;;;5037963;28;20201;-71
2022/02/18 06:53:25;;;;;;;10.27;2.53;;;8.30;99.90;;;;;;4991985;28;20558;-72
2022/02/18 06:55:52;;;;;;;14.83;2.87;;;8.30;99.90;;;;;;4986798;28;20218;-68
2022/02/18 06:58:18;;;;;;;7.87;2.93;;;8.30;99.90;;;;;;4994795;28;20524;-69
2022/02/18 07:00:44;;;;;;;5.30;2.43;;;8.30;99.90;;;;;;5036380;28;20464;-71
2022/02/18 07:03:11;;;;;;;4.70;2.40;;;8.30;99.90;;;;;;4989842;28;20222;-71
2022/02/18 07:05:37;;;;;;;6.47;2.67;;;8.30;99.90;;;;;;4989899;28;20456;-69
2022/02/18 07:08:03;;;;;;;4.97;2.37;;;8.30;99.90;;;;;;5000836;28;20369;-69
2022/02/18 07:10:29;;;;;;;8.40;2.03;;;8.30;99.90;;;;;;5007343;28;20225;-69
2022/02/18 07:12:56;;;;;;;5.80;1.83;;;8.30;99.90;;;;;;4992393;28;20213;-70
2022/02/18 07:15:21;;;;;;;4.40;2.10;;;8.30;99.90;;;;;;5013114;28;20217;-70
2022/02/18 07:17:49;;;;;;;11.93;2.07;;;8.40;99.90;;;;;;5010004;28;20464;-68
2022/02/18 07:20:16;;;;;;;7.80;1.73;;;8.40;99.90;;;;;;4981130;28;20229;-72
2022/02/18 07:22:43;;;;;;;8.17;2.27;;;8.30;99.90;;;;;;5003707;28;20457;-69
2022/02/18 07:25:11;;;;;;;10.97;2.10;;;8.40;99.90;;;;;;5033093;27;20508;-69
2022/02/18 07:27:36;;;;;;;5.47;2.10;;;8.40;99.90;;;;;;5016260;28;20898;-72
2022/02/18 07:30:04;;;;;;;3.70;2.10;;;8.40;99.90;;;;;;5011933;28;20483;-70
2022/02/18 07:32:29;;;;;;;4.00;2.13;;;8.40;99.90;;;;;;4997287;28;20225;-70
2022/02/18 07:34:55;;;;;;;11.17;2.80;;;8.40;99.90;;;;;;4998650;28;20481;-72
2022/02/18 07:37:21;;;;;;;8.60;3.40;;;8.40;99.90;;;;;;4976352;28;20230;-73
2022/02/18 07:39:46;;;;;;;4.53;2.73;;;8.40;99.90;;;;;;4996309;28;20316;-69
2022/02/18 07:42:12;;;;;;;3.20;2.07;;;8.50;99.90;;;;;;4992719;28;20225;-69
2022/02/18 07:44:38;;;;;;;8.63;2.20;;;8.50;99.90;;;;;;4989372;28;20307;-69
2022/02/18 07:47:04;;;;;;;6.33;1.97;;;8.40;99.90;;;;;;5008964;28;20236;-70
2022/02/18 07:49:30;;;;;;;4.83;2.10;;;8.50;99.90;;;;;;5002141;28;20284;-70
2022/02/18 07:51:56;;;;;;;3.90;2.30;;;8.50;99.90;;;;;;4977916;28;20967;-72
2022/02/18 07:54:22;;;;;;;5.60;2.10;;;8.50;99.90;;;;;;4989274;28;20576;-72
2022/02/18 07:56:48;;;;;;;2.27;1.60;;;8.50;99.90;;;;;;4993327;28;20595;-74
2022/02/18 07:59:14;;;;;;;11.27;2.13;;;8.50;99.90;;;;;;4995703;28;20264;-69
2022/02/18 08:01:42;;;;;;;9.83;2.60;;;8.50;99.90;;;;;;5041735;28;20592;-69
2022/02/18 08:04:08;;;;;;;5.83;2.10;;;8.60;99.90;;;;;;5029113;28;20459;-70
2022/02/18 08:06:35;;;;;;;2.80;1.87;;;8.60;99.90;;;;;;5008260;28;20213;-69
2022/02/18 08:09:02;;;;;;;6.07;1.90;;;8.60;99.90;;;;;;5025916;28;20548;-70
2022/02/18 08:11:28;;;;;;;9.07;1.80;;;8.60;99.90;;;;;;5008038;28;20230;-72
2022/02/18 08:13:54;;;;;;;2.67;1.50;;;8.60;99.90;;;;;;5002360;28;20456;-70
2022/02/18 08:16:20;;;;;;;2.23;1.07;;;8.70;99.90;;;;;;5008982;28;20704;-69
2022/02/18 08:18:45;;;;;;;6.13;1.20;;;8.70;99.90;;;;;;4998631;28;20232;-70
2022/02/18 08:21:12;;;;;;;4.50;1.60;;;8.70;99.90;;;;;;5004946;28;20837;-70
2022/02/18 08:23:40;;;;;;;4.30;1.67;;;8.70;99.90;;;;;;5029344;28;20242;-72
2022/02/18 08:26:06;;;;;;;7.37;1.30;;;8.70;99.90;;;;;;4999807;28;20450;-70
2022/02/18 08:28:32;;;;;;;1.77;1.20;;;8.80;99.90;;;;;;5014656;28;20504;-70
2022/02/18 08:30:58;;;;;;;1.57;1.10;;;8.80;99.90;;;;;;5006354;28;20510;-71
2022/02/18 08:33:24;;;;;;;2.43;1.33;;;8.80;99.90;;;;;;4989652;28;20878;-70
2022/02/18 08:35:49;;;;;;;4.73;1.40;;;8.90;99.90;;;;;;4996657;28;20269;-72
2022/02/18 08:38:15;;;;;;;6.37;1.40;;;8.90;99.90;;;;;;4999777;28;20240;-70
2022/02/18 08:40:41;;;;;;;1.33;1.23;;;8.90;99.90;;;;;;5016655;28;20244;-69
2022/02/18 08:43:07;;;;;;;1.63;1.10;;;9.00;99.90;;;;;;4986509;28;20709;-69
2022/02/18 08:45:34;;;;;;;1.80;0.90;;;9.00;99.90;;;;;;4981992;28;20447;-69
2022/02/18 08:48:00;;;;;;;2.73;1.40;;;9.00;99.90;;;;;;5008827;28;20480;-70
2022/02/18 08:50:27;;;;;;;1.30;0.97;;;9.00;99.90;;;;;;5008859;28;20461;-72
2022/02/18 08:52:53;;;;;;;1.07;0.97;;;9.00;99.90;;;;;;4981713;28;20503;-70
2022/02/18 08:55:21;;;;;;;2.70;1.60;;;9.10;99.90;;;;;;5004330;28;20491;-70
2022/02/18 08:57:48;;;;;;;1.87;1.20;;;9.10;99.90;;;;;;5004892;28;20226;-70
2022/02/18 09:00:17;;;;;;;1.37;1.10;;;9.10;99.90;;;;;;4990349;28;20472;-70
2022/02/18 09:02:44;;;;;;;2.17;0.93;;;9.20;99.90;;;;;;4989582;28;20990;-71
2022/02/18 09:05:10;;;;;;;1.40;1.13;;;9.20;99.90;;;;;;5039367;27;20987;-71
2022/02/18 09:07:36;;;;;;;1.30;1.20;;;9.30;99.90;;;;;;4993717;28;20461;-70
2022/02/18 09:10:03;;;;;;;3.50;1.37;;;9.30;99.90;;;;;;5012681;28;20508;-75
2022/02/18 09:12:29;;;;;;;2.17;1.50;;;9.40;99.90;;;;;;5037728;28;20517;-71
2022/02/18 09:14:55;;;;;;;1.80;1.07;;;9.40;99.90;;;;;;5007662;28;20464;-72
2022/02/18 09:17:31;;;;;;;3.80;0.87;;;9.40;99.90;;;;;;5014351;28;20239;-70
2022/02/18 09:19:58;;;;;;;1.33;1.00;;;9.50;99.90;;;;;;5011457;28;20527;-68
2022/02/18 09:22:24;;;;;;;1.40;1.27;;;9.50;99.90;;;;;;5013673;28;20522;-69
2022/02/18 09:24:53;;;;;;;0.83;0.83;;;9.60;99.90;;;;;;5000190;28;20464;-69
2022/02/18 09:27:21;;;;;;;1.27;0.90;;;9.60;99.90;;;;;;5026619;28;20466;-70
2022/02/18 09:29:47;;;;;;;2.20;1.13;;;9.70;99.90;;;;;;5003514;28;20563;-70
2022/02/18 09:32:14;;;;;;;1.33;1.03;;;9.80;99.90;;;;;;4996287;28;20316;-71
2022/02/18 09:34:40;;;;;;;1.57;1.13;;;9.80;99.90;;;;;;5028059;28;20451;-70
2022/02/18 09:37:06;;;;;;;1.63;1.27;;;9.90;99.90;;;;;;4992248;28;20500;-70
2022/02/18 09:39:32;;;;;;;1.20;1.10;;;10.00;99.90;;;;;;5002125;28;20498;-72
2022/02/18 09:41:58;;;;;;;1.63;0.87;;;10.00;99.90;;;;;;5004741;28;20371;-73
2022/02/18 09:44:28;;;;;;;0.60;0.60;;;10.10;99.90;;;;;;4992454;28;20894;-69
2022/02/18 09:46:57;;;;;;;1.27;0.80;;;10.20;99.90;;;;;;5023408;28;20464;-72
2022/02/18 09:49:23;;;;;;;2.07;0.90;;;10.20;99.90;;;;;;5029045;28;20460;-70
2022/02/18 09:51:49;;;;;;;0.60;0.50;;;10.30;99.90;;;;;;5009338;28;20463;-70
2022/02/18 09:54:20;;;;;;;1.73;1.10;;;10.40;99.90;;;;;;4986829;28;20450;-69
2022/02/18 09:56:47;;;;;;;1.00;0.80;;;10.50;99.90;;;;;;4988851;28;20868;-70
2022/02/18 09:59:14;;;;;;;1.07;0.80;;;10.50;99.90;;;;;;5009273;28;20489;-70
2022/02/18 10:01:40;;;;;;;0.73;0.73;;;10.60;99.90;;;;;;5017649;27;21040;-70
2022/02/18 10:04:08;;;;;;;0.60;0.60;;;10.70;99.90;;;;;;5033537;27;20460;-70
2022/02/18 10:06:34;;;;;;;0.83;0.83;;;10.70;99.90;;;;;;5015017;28;20556;-71
2022/02/18 10:09:00;;;;;;;0.70;0.70;;;10.80;99.90;;;;;;5001094;28;20488;-73
2022/02/18 10:11:26;;;;;;;1.13;1.00;;;10.80;99.90;;;;;;4999633;28;20620;-71
2022/02/18 10:13:53;;;;;;;1.77;0.93;;;10.90;99.90;;;;;;5005805;28;20225;-69
2022/02/18 10:16:24;;;;;;;8.93;5.73;;;11.00;99.90;;;;;;5001975;28;20554;-69
2022/02/18 10:18:59;;;;;;;8.47;6.57;;;11.10;99.90;;;;;;4994341;28;20559;-71
2022/02/18 10:21:34;;;;;;;7.23;4.83;;;11.10;99.90;;;;;;5015170;28;20453;-70
2022/02/18 10:24:14;;;;;;;3.60;3.10;;;11.20;99.90;;;;;;5015383;27;20470;-71
2022/02/18 10:26:48;;;;;;;5.67;4.80;;;11.30;99.90;;;;;;5000606;28;20458;-70
2022/02/18 10:29:25;;;;;;;8.70;5.97;;;11.30;99.90;;;;;;5008034;28;20472;-70
2022/02/18 10:32:14;;;;;;;14.77;8.27;;;11.30;99.90;;;;;;5029569;27;20474;-73
2022/02/18 10:35:04;;;;;;;8.20;6.90;;;11.30;99.90;;;;;;4998117;28;20461;-70
2022/02/18 10:37:31;;;;;;;7.03;6.43;;;11.30;99.90;;;;;;5029818;28;20540;-70
2022/02/18 10:40:13;;;;;;;7.60;6.30;;;11.40;99.90;;;;;;5035278;28;20491;-71
2022/02/18 10:42:40;;;;;;;11.77;6.83;;;11.40;99.90;;;;;;4993638;28;20460;-70
2022/02/18 10:45:24;;;;;;;7.00;4.87;;;11.50;99.90;;;;;;4987228;28;20465;-69
2022/02/18 10:48:08;;;;;;;8.47;4.33;;;11.50;99.90;;;;;;5008605;28;20464;-69
2022/02/18 10:50:35;;;;;;;10.13;7.40;;;11.60;99.90;;;;;;4993357;28;20461;-70
2022/02/18 10:53:14;;;;;;;19.27;11.60;;;11.60;99.90;;;;;;4991752;28;20552;-72
2022/02/18 10:55:53;;;;;;;11.97;7.70;;;11.60;99.90;;;;;;4990954;28;20499;-73
2022/02/18 10:58:26;;;;;;;8.37;3.53;;;11.60;99.90;;;;;;4988890;28;20476;-69
2022/02/18 11:01:12;;;;;;;7.10;2.93;;;11.60;99.90;;;;;;4999157;28;20474;-72
2022/02/18 11:03:46;;;;;;;3.23;1.60;;;11.60;99.90;;;;;;5009641;28;20458;-70
2022/02/18 11:06:23;;;;;;;2.37;1.20;;;11.60;99.90;;;;;;5021346;28;20465;-70
2022/02/18 11:09:04;;;;;;;1.77;0.90;;;11.60;99.90;;;;;;5036428;28;21046;-71
2022/02/18 11:11:32;;;;;;;0.90;0.90;;;11.70;99.90;;;;;;5018640;28;20555;-72
2022/02/18 11:14:00;;;;;;;4.50;1.20;;;11.70;99.90;;;;;;5004721;28;20498;-73
2022/02/18 11:16:27;;;;;;;0.97;0.97;;;11.70;99.90;;;;;;5005413;28;21069;-73
2022/02/18 11:18:54;;;;;;;0.90;0.90;;;11.70;99.90;;;;;;5003772;28;20503;-70
2022/02/18 11:21:20;;;;;;;2.10;1.20;;;11.70;99.90;;;;;;5008397;28;20457;-73
2022/02/18 11:23:48;;;;;;;0.90;0.90;;;11.80;99.90;;;;;;4998311;28;21010;-71
2022/02/18 11:26:22;;;;;;;1.17;0.80;;;11.80;99.90;;;;;;4995173;28;20271;-70
2022/02/18 11:28:49;;;;;;;3.23;0.63;;;11.90;99.90;;;;;;5016395;28;20453;-72
2022/02/18 11:31:20;;;;;;;1.80;0.73;;;11.90;99.90;;;;;;4989646;28;20521;-71
2022/02/18 11:34:27;;;;;;;0.70;0.63;;;11.80;99.90;;;;;;4972423;28;20590;-69
2022/02/18 11:37:14;;;;;;;4.17;2.90;;;11.90;99.90;;;;;;5023091;28;20460;-71
2022/02/18 11:39:58;;;;;;;8.10;5.30;;;11.90;99.90;;;;;;4995695;28;20525;-70
2022/02/18 11:42:32;;;;;;;36.50;22.27;;;11.90;99.90;;;;;;5032019;27;20472;-71
2022/02/18 11:44:58;;;;;;;26.40;18.87;;;11.90;99.90;;;;;;4969707;28;20579;-71
2022/02/18 11:47:24;;;;;;;11.10;8.83;;;11.90;99.90;;;;;;4989253;28;21043;-70
2022/02/18 11:49:52;;;;;;;17.93;12.70;;;11.90;99.90;;;;;;5026244;28;20459;-72
2022/02/18 11:52:21;;;;;;;30.03;18.20;;;11.90;99.90;;;;;;4985375;28;20472;-72
2022/02/18 11:54:48;;;;;;;51.27;26.03;;;11.90;99.90;;;;;;4980429;28;20444;-72
2022/02/18 11:57:18;;;;;;;37.97;21.47;;;12.00;99.90;;;;;;4988976;28;20481;-71
2022/02/18 12:00:06;;;;;;;56.30;31.83;;;12.00;99.90;;;;;;5005244;28;20475;-72
2022/02/18 12:02:45;;;;;;;55.33;28.80;;;12.00;99.90;;;;;;5001318;28;20452;-74
2022/02/18 12:05:15;;;;;;;55.00;29.10;;;12.00;99.90;;;;;;4995605;28;20496;-71
2022/02/18 12:07:42;;;;;;;52.73;27.50;;;12.00;99.90;;;;;;5016910;28;20437;-69
2022/02/18 12:10:25;;;;;;;26.27;15.67;;;12.00;99.90;;;;;;4975599;28;20967;-73
2022/02/18 12:13:06;;;;;;;45.27;23.30;;;12.00;99.90;;;;;;5002491;28;20456;-68
2022/02/18 12:15:37;;;;;;;50.50;25.10;;;12.10;99.90;;;;;;5003296;28;20484;-70
2022/02/18 12:18:09;;;;;;;39.40;20.80;;;12.10;99.90;;;;;;4995603;28;20551;-73
2022/02/18 12:20:38;;;;;;;40.07;20.67;;;12.00;99.90;;;;;;5026324;28;20509;-70
2022/02/18 12:23:22;;;;;;;41.97;25.57;;;12.10;99.90;;;;;;4996435;28;20474;-72
2022/02/18 12:25:48;;;;;;;15.53;11.80;;;12.10;99.90;;;;;;5011877;28;20987;-74
2022/02/18 12:28:17;;;;;;;3.07;2.87;;;12.00;99.90;;;;;;4997444;28;20544;-69
2022/02/18 12:30:56;;;;;;;2.03;1.80;;;12.10;99.90;;;;;;4998864;28;20460;-72
2022/02/18 12:33:22;;;;;;;1.43;1.33;;;12.10;99.90;;;;;;5004751;28;20459;-71
2022/02/18 12:35:47;;;;;;;2.90;1.60;;;12.00;99.90;;;;;;5024114;28;20479;-74
2022/02/18 12:38:14;;;;;;;1.07;1.00;;;12.10;99.90;;;;;;4992310;28;20233;-71
2022/02/18 12:40:42;;;;;;;0.60;0.60;;;12.10;99.90;;;;;;4986199;28;20224;-71
2022/02/18 12:43:17;;;;;;;1.80;1.10;;;12.00;99.90;;;;;;4997614;28;20461;-72
2022/02/18 12:45:48;;;;;;;0.90;0.90;;;12.00;99.90;;;;;;5016299;28;20561;-71
2022/02/18 12:48:27;;;;;;;0.53;0.50;;;12.00;99.90;;;;;;4967846;28;20634;-72
2022/02/18 12:50:54;;;;;;;0.90;0.90;;;12.00;99.90;;;;;;5036899;28;20460;-74
2022/02/18 12:53:20;;;;;;;0.80;0.80;;;12.00;99.90;;;;;;4977996;28;20613;-72
2022/02/18 12:55:46;;;;;;;1.03;1.03;;;12.00;99.90;;;;;;4990676;28;20581;-71